Time;durP1;ratioP1;P1;durP2;ratioP2;P2;SDS_P1;SDS_P2;PMS_P1;PMS_P2;Temp;Humidity;BMP_temperature;BMP_pressure;BME280_temperature;BME280_humidity;BME280_pressure;Samples;Min_cycle;Max_cycle;Signal;HPM_P1;HPM_P2
2021/03/19 00:00:34;;;;;;;1.00;0.90;;;;;;;1.19;87.66;97271.44;1653836;87;21184;-62
2021/03/19 00:03:04;;;;;;;0.62;0.62;;;;;;;1.16;87.96;97274.20;1653789;86;21145;-62
2021/03/19 00:05:33;;;;;;;1.25;0.80;;;;;;;1.18;87.70;97264.67;1654146;86;21929;-63
2021/03/19 00:08:01;;;;;;;2.02;0.70;;;;;;;1.19;87.90;97267.59;1653785;86;21197;-63
2021/03/19 00:10:32;;;;;;;0.50;0.50;;;;;;;1.26;87.66;97266.72;1653760;87;21168;-63
2021/03/19 00:13:05;;;;;;;0.72;0.65;;;;;;;1.35;87.57;97268.22;1653738;87;21632;-63
2021/03/19 00:15:33;;;;;;;1.15;1.05;;;;;;;1.47;87.45;97268.31;1653810;87;21168;-62
2021/03/19 00:18:05;;;;;;;1.15;0.90;;;;;;;1.52;87.06;97268.83;1653690;87;21236;-63
2021/03/19 00:20:38;;;;;;;1.80;1.25;;;;;;;1.57;86.81;97265.47;1653842;87;21595;-63
2021/03/19 00:23:08;;;;;;;0.95;0.70;;;;;;;1.57;86.34;97262.91;1653368;86;21172;-62
2021/03/19 00:25:41;;;;;;;1.10;1.00;;;;;;;1.31;87.32;97259.11;1653759;85;21168;-62
2021/03/19 00:28:15;;;;;;;0.65;0.60;;;;;;;1.40;86.95;97264.87;1653921;86;21766;-62
2021/03/19 00:30:47;;;;;;;1.07;0.98;;;;;;;1.40;87.02;97261.03;1653770;86;21169;-62
2021/03/19 00:33:16;;;;;;;1.30;1.15;;;;;;;1.17;87.88;97258.37;1653902;86;21625;-63
2021/03/19 00:35:45;;;;;;;0.80;0.75;;;;;;;0.85;88.53;97256.68;1653821;86;21246;-62
2021/03/19 00:38:20;;;;;;;0.88;0.80;;;;;;;0.89;88.69;97250.45;1653753;86;21648;-62
2021/03/19 00:40:49;;;;;;;1.65;0.93;;;;;;;0.88;88.59;97248.80;1653872;86;21196;-63
2021/03/19 00:43:18;;;;;;;2.45;1.42;;;;;;;0.87;88.78;97246.70;1653699;87;21155;-62
2021/03/19 00:45:46;;;;;;;0.95;0.85;;;;;;;0.87;88.47;97238.22;1653833;86;21640;-63
2021/03/19 00:48:14;;;;;;;1.05;0.60;;;;;;;0.74;89.36;97248.90;1653712;86;21164;-63
2021/03/19 00:50:44;;;;;;;1.00;0.80;;;;;;;0.76;89.27;97244.03;1652753;87;21660;-63
2021/03/19 00:53:12;;;;;;;0.50;0.50;;;;;;;0.67;89.49;97233.58;1653694;87;21164;-67
2021/03/19 00:55:40;;;;;;;0.98;0.88;;;;;;;0.67;89.92;97244.63;1653735;86;21220;-63
2021/03/19 00:58:08;;;;;;;0.80;0.80;;;;;;;0.63;90.13;97242.36;1653860;86;21169;-62
2021/03/19 01:00:38;;;;;;;1.47;1.25;;;;;;;0.58;90.46;97235.02;1653887;85;21556;-62
2021/03/19 01:03:07;;;;;;;1.07;0.98;;;;;;;0.52;90.80;97235.39;1653810;86;21183;-62
2021/03/19 01:05:40;;;;;;;1.10;0.90;;;;;;;0.50;90.85;97237.70;1633355;87;21215;-62
2021/03/19 01:08:10;;;;;;;1.35;0.72;;;;;;;0.52;90.81;97237.95;1653653;87;21622;-64
2021/03/19 01:10:49;;;;;;;0.47;0.47;;;;;;;0.51;90.77;97235.51;1653656;86;21197;-62
2021/03/19 01:13:18;;;;;;;0.62;0.57;;;;;;;0.44;90.62;97237.16;1653739;86;21205;-62
2021/03/19 01:15:46;;;;;;;5.15;1.82;;;;;;;0.44;90.93;97236.34;1653621;86;21169;-62
2021/03/19 01:18:18;;;;;;;0.93;0.93;;;;;;;0.35;91.13;97236.95;1653633;86;21209;-62
2021/03/19 01:20:48;;;;;;;1.90;1.07;;;;;;;0.40;91.17;97237.00;1653617;87;21145;-62
2021/03/19 01:23:18;;;;;;;0.78;0.78;;;;;;;0.41;91.25;97242.92;1653613;86;21149;-63
2021/03/19 01:25:46;;;;;;;1.37;1.22;;;;;;;0.42;91.30;97237.73;1653682;87;21236;-63
2021/03/19 01:28:14;;;;;;;2.67;1.75;;;;;;;0.47;91.15;97240.79;1653660;87;21189;-63
2021/03/19 01:30:44;;;;;;;2.92;1.62;;;;;;;0.46;91.59;97240.91;1653864;86;21175;-63
2021/03/19 01:33:13;;;;;;;1.50;1.07;;;;;;;0.50;91.41;97230.03;1653990;87;21175;-63
2021/03/19 01:35:42;;;;;;;3.80;1.27;;;;;;;0.49;91.58;97230.48;1654009;87;21239;-63
2021/03/19 01:38:12;;;;;;;1.80;1.40;;;;;;;0.51;91.55;97233.75;1653702;86;21614;-63
2021/03/19 01:40:44;;;;;;;2.30;2.10;;;;;;;0.44;91.76;97235.06;1653714;86;21215;-63
2021/03/19 01:43:34;;;;;;;1.67;1.45;;;;;;;0.44;92.07;97237.62;1653581;87;21235;-62
2021/03/19 01:46:40;;;;;;;1.55;1.20;;;;;;;0.43;91.93;97229.13;1653634;87;21177;-62
2021/03/19 01:50:05;;;;;;;3.45;1.80;;;;;;;0.47;91.65;97229.75;1653936;86;21566;-62
2021/03/19 01:53:28;;;;;;;1.90;1.70;;;;;;;0.47;91.28;97230.58;1653817;86;21181;-63
2021/03/19 01:56:52;;;;;;;1.37;1.27;;;;;;;0.43;91.40;97233.42;1653937;87;21183;-63
2021/03/19 02:00:16;;;;;;;2.35;1.75;;;;;;;0.42;91.70;97230.07;1653717;86;21605;-62
2021/03/19 02:03:40;;;;;;;1.60;1.25;;;;;;;0.44;91.90;97226.95;1653987;86;21601;-62
2021/03/19 02:07:04;;;;;;;2.05;1.85;;;;;;;0.48;92.00;97226.29;1653861;86;21192;-65
2021/03/19 02:10:28;;;;;;;3.35;1.98;;;;;;;0.42;92.21;97230.07;1653788;86;21220;-62
2021/03/19 02:13:52;;;;;;;2.77;1.80;;;;;;;0.31;92.26;97231.67;1653621;86;21595;-61
2021/03/19 02:17:16;;;;;;;2.95;1.90;;;;;;;0.29;92.15;97231.76;1655482;86;21208;-62
2021/03/19 02:20:39;;;;;;;1.07;0.82;;;;;;;0.26;92.25;97232.41;1653762;86;21172;-62
2021/03/19 02:24:03;;;;;;;1.02;1.02;;;;;;;0.30;92.39;97239.78;1653804;86;21184;-62
2021/03/19 02:27:27;;;;;;;1.42;1.32;;;;;;;0.27;92.15;97237.89;1653609;87;21176;-62
2021/03/19 02:30:52;;;;;;;5.08;2.80;;;;;;;0.25;91.99;97234.59;1653650;86;21239;-61
2021/03/19 02:33:20;;;;;;;1.95;1.45;;;;;;;0.21;91.97;97233.97;1653516;87;21619;-63
2021/03/19 02:35:58;;;;;;;2.08;1.82;;;;;;;0.25;91.38;97237.15;1653825;87;21205;-62
2021/03/19 02:38:33;;;;;;;2.02;1.92;;;;;;;0.23;91.48;97237.27;1653892;86;21235;-62
2021/03/19 02:41:00;;;;;;;1.62;1.52;;;;;;;0.21;91.49;97240.36;1653742;86;21240;-61
2021/03/19 02:43:29;;;;;;;2.67;1.70;;;;;;;0.20;91.14;97236.61;1653631;87;21196;-62
2021/03/19 02:45:57;;;;;;;2.87;1.55;;;;;;;0.19;91.03;97237.09;1653642;87;21637;-62
2021/03/19 02:48:25;;;;;;;1.12;0.93;;;;;;;0.16;91.05;97237.27;1653588;86;21159;-63
2021/03/19 02:50:53;;;;;;;1.47;1.37;;;;;;;0.19;90.71;97238.38;1655308;86;21605;-62
2021/03/19 02:53:29;;;;;;;2.27;1.00;;;;;;;0.09;90.86;97231.36;1653719;87;21669;-61
2021/03/19 02:56:00;;;;;;;0.78;0.68;;;;;;;0.16;90.95;97231.34;1653976;87;21235;-61
2021/03/19 02:58:28;;;;;;;1.55;1.40;;;;;;;0.16;90.87;97233.89;1653626;87;21190;-62
2021/03/19 03:00:57;;;;;;;1.00;0.95;;;;;;;0.12;91.14;97237.09;1653901;86;21171;-62
2021/03/19 03:03:25;;;;;;;5.10;2.00;;;;;;;0.14;91.35;97242.94;1653601;86;21697;-62
2021/03/19 03:05:54;;;;;;;2.00;1.80;;;;;;;0.11;91.52;97236.76;1653924;86;21176;-63
2021/03/19 03:08:23;;;;;;;1.57;1.40;;;;;;;0.14;91.48;97235.28;1653848;86;21640;-63
2021/03/19 03:10:54;;;;;;;1.45;1.35;;;;;;;0.17;91.55;97241.92;1653950;86;21564;-63
2021/03/19 03:13:22;;;;;;;1.32;1.22;;;;;;;0.15;91.43;97242.03;1653876;86;21235;-63
2021/03/19 03:15:50;;;;;;;1.20;1.10;;;;;;;0.18;91.32;97239.73;1653748;86;21203;-62
2021/03/19 03:18:20;;;;;;;1.98;1.47;;;;;;;0.19;91.28;97240.92;1653674;86;21633;-62
2021/03/19 03:20:53;;;;;;;2.98;2.50;;;;;;;0.17;91.25;97240.64;1653695;86;21171;-61
2021/03/19 03:23:25;;;;;;;3.62;2.25;;;;;;;0.16;91.23;97244.10;1653409;87;21144;-64
2021/03/19 03:25:53;;;;;;;1.35;1.25;;;;;;;0.09;91.54;97244.95;1654035;86;21144;-62
2021/03/19 03:28:24;;;;;;;2.58;2.30;;;;;;;0.18;91.21;97243.56;1653817;86;21144;-64
2021/03/19 03:30:57;;;;;;;2.25;2.05;;;;;;;0.12;91.21;97242.20;1654007;86;21180;-63
2021/03/19 03:33:25;;;;;;;2.92;2.17;;;;;;;0.13;91.58;97241.30;1653806;86;21209;-62
2021/03/19 03:35:55;;;;;;;2.90;2.02;;;;;;;0.14;91.57;97241.66;1653856;87;21260;-62
2021/03/19 03:38:27;;;;;;;1.42;1.32;;;;;;;0.11;91.45;97238.48;1653852;87;21160;-62
2021/03/19 03:41:10;;;;;;;1.30;1.12;;;;;;;0.00;91.51;97234.06;1653679;87;21184;-62
2021/03/19 03:43:38;;;;;;;2.60;2.25;;;;;;;0.05;91.34;97237.58;1653883;87;21220;-63
2021/03/19 03:46:09;;;;;;;2.45;1.72;;;;;;;0.05;91.53;97236.30;1653856;86;21597;-62
2021/03/19 03:48:38;;;;;;;2.87;2.58;;;;;;;0.08;91.58;97238.20;1653834;86;21192;-64
2021/03/19 03:51:09;;;;;;;1.80;1.02;;;;;;;0.08;91.61;97240.75;1653971;86;21171;-62
2021/03/19 03:53:38;;;;;;;4.10;2.50;;;;;;;0.05;91.24;97239.67;1653863;87;21203;-65
2021/03/19 03:56:11;;;;;;;1.95;1.62;;;;;;;0.11;91.45;97244.88;1653754;86;21211;-65
2021/03/19 03:58:40;;;;;;;1.87;1.67;;;;;;;0.05;91.55;97242.68;1653820;86;21613;-63
2021/03/19 04:01:09;;;;;;;1.62;1.52;;;;;;;0.09;91.56;97241.13;1653851;86;21597;-63
2021/03/19 04:03:38;;;;;;;1.98;1.62;;;;;;;0.07;91.73;97245.52;1653711;86;21225;-65
2021/03/19 04:06:08;;;;;;;1.60;1.50;;;;;;;0.17;91.52;97238.91;1653877;86;21195;-63
2021/03/19 04:08:37;;;;;;;2.02;1.75;;;;;;;0.07;91.56;97244.70;1653746;86;21220;-63
2021/03/19 04:13:52;;;;;;;2.02;1.12;;;;;;;0.08;91.44;97248.41;1653746;85;21184;-64
2021/03/19 04:16:21;;;;;;;1.40;1.17;;;;;;;0.14;91.36;97240.39;1653633;85;21180;-64
2021/03/19 04:18:50;;;;;;;1.07;0.98;;;;;;;0.26;91.29;97241.35;1653789;85;21582;-62
2021/03/19 04:21:18;;;;;;;1.45;1.35;;;;;;;0.25;90.96;97248.19;1653846;85;21208;-62
2021/03/19 04:23:49;;;;;;;2.05;1.40;;;;;;;0.12;90.95;97244.75;1656012;86;21164;-62
2021/03/19 04:26:35;;;;;;;2.25;1.52;;;;;;;0.22;90.97;97244.55;1652321;86;21149;-62
2021/03/19 04:29:04;;;;;;;2.13;1.90;;;;;;;0.21;91.12;97243.37;1652591;85;21176;-61
2021/03/19 04:31:32;;;;;;;4.28;2.15;;;;;;;0.24;90.85;97243.16;1652256;86;21197;-62
2021/03/19 04:34:00;;;;;;;1.75;1.42;;;;;;;-0.03;91.99;97251.64;1652408;86;21212;-62
2021/03/19 04:36:41;;;;;;;1.82;1.45;;;;;;;0.08;92.80;97245.86;1652323;85;21656;-65
2021/03/19 04:39:15;;;;;;;1.17;1.05;;;;;;;0.17;92.93;97247.84;1652335;87;21193;-65
2021/03/19 04:41:48;;;;;;;3.37;2.67;;;;;;;0.19;92.78;97250.31;1652278;87;21165;-61
2021/03/19 04:44:17;;;;;;;4.28;3.12;;;;;;;0.18;92.04;97248.22;1652185;86;21269;-65
2021/03/19 04:46:46;;;;;;;9.80;4.97;;;;;;;0.22;91.27;97249.66;1652316;87;21208;-64
2021/03/19 04:49:14;;;;;;;2.60;2.15;;;;;;;0.25;91.02;97250.74;1652287;87;21636;-62
2021/03/19 04:51:42;;;;;;;9.60;4.83;;;;;;;0.28;90.68;97249.72;1652377;86;21656;-63
2021/03/19 04:54:12;;;;;;;2.45;2.20;;;;;;;0.30;90.39;97256.84;1652460;85;21179;-62
2021/03/19 04:56:40;;;;;;;1.70;1.60;;;;;;;0.30;89.77;97253.83;1652463;85;21244;-62
2021/03/19 04:59:09;;;;;;;5.62;2.10;;;;;;;0.32;89.61;97253.27;1652338;87;21173;-62
2021/03/19 05:01:57;;;;;;;2.52;1.67;;;;;;;0.32;89.44;97262.20;1652150;87;21220;-62
2021/03/19 05:04:27;;;;;;;3.02;2.50;;;;;;;0.31;89.22;97263.11;1652433;86;21204;-62
2021/03/19 05:07:01;;;;;;;2.12;1.87;;;;;;;0.29;89.30;97264.95;1652563;86;21208;-65
2021/03/19 05:09:31;;;;;;;1.52;1.20;;;;;;;0.26;89.16;97265.16;1652320;86;21581;-64
2021/03/19 05:12:01;;;;;;;4.85;1.80;;;;;;;0.26;88.95;97264.33;1652462;86;21192;-63
2021/03/19 05:14:28;;;;;;;1.50;1.27;;;;;;;0.36;89.08;97266.66;1652429;86;21161;-63
2021/03/19 05:16:58;;;;;;;1.20;1.10;;;;;;;0.42;89.17;97268.84;1651244;86;21177;-63
2021/03/19 05:19:27;;;;;;;3.33;1.82;;;;;;;0.48;89.04;97273.55;1645904;85;21582;-63
2021/03/19 05:21:55;;;;;;;1.20;0.95;;;;;;;0.45;88.79;97267.36;1645239;86;21228;-63
2021/03/19 05:24:23;;;;;;;2.52;1.57;;;;;;;0.45;88.66;97268.19;1645579;86;21228;-62
2021/03/19 05:26:52;;;;;;;2.42;0.93;;;;;;;0.53;88.72;97274.53;1645561;86;21626;-63
2021/03/19 05:29:19;;;;;;;3.33;1.20;;;;;;;0.47;88.04;97276.55;1645870;86;21181;-64
2021/03/19 05:31:47;;;;;;;1.47;1.02;;;;;;;0.55;88.13;97275.24;1645777;86;21173;-64
2021/03/19 05:34:17;;;;;;;1.87;1.55;;;;;;;0.61;87.99;97281.25;1645861;86;21566;-63
2021/03/19 05:36:45;;;;;;;2.50;2.17;;;;;;;0.61;87.82;97284.63;1645987;85;21260;-64
2021/03/19 05:39:13;;;;;;;1.80;1.47;;;;;;;0.65;87.95;97282.70;1646120;86;21638;-64
2021/03/19 05:41:43;;;;;;;1.12;1.02;;;;;;;0.67;87.37;97288.06;1646296;86;21788;-64
2021/03/19 05:44:34;;;;;;;0.88;0.88;;;;;;;0.67;87.30;97289.34;1646123;86;21617;-64
2021/03/19 05:47:28;;;;;;;1.22;1.12;;;;;;;0.67;87.42;97290.61;1608967;87;21601;-64
2021/03/19 05:50:01;;;;;;;3.30;1.55;;;;;;;0.58;86.93;97295.51;1635164;86;21141;-63
2021/03/19 05:52:35;;;;;;;1.50;1.40;;;;;;;0.58;87.42;97298.06;1634964;87;21645;-63
2021/03/19 05:55:36;;;;;;;1.30;1.07;;;;;;;0.56;87.49;97302.44;1635092;87;21210;-64
2021/03/19 05:58:08;;;;;;;6.25;2.22;;;;;;;0.51;87.46;97305.77;1665252;85;21152;-64
2021/03/19 06:00:36;;;;;;;2.58;1.57;;;;;;;0.60;87.66;97301.33;1665346;85;21204;-64
2021/03/19 06:03:04;;;;;;;1.77;1.42;;;;;;;0.57;87.83;97308.73;1665350;85;21191;-62
2021/03/19 06:05:38;;;;;;;2.50;1.22;;;;;;;0.59;87.78;97308.63;1665203;86;21601;-62
2021/03/19 06:08:06;;;;;;;2.27;1.72;;;;;;;0.56;87.95;97307.09;1660859;86;21179;-63
2021/03/19 06:10:42;;;;;;;2.15;1.40;;;;;;;0.56;88.27;97312.66;1665521;86;21667;-64
2021/03/19 06:13:24;;;;;;;3.62;1.67;;;;;;;0.65;88.04;97313.36;1665512;86;21160;-63
2021/03/19 06:15:57;;;;;;;2.25;1.70;;;;;;;0.68;87.78;97321.65;1665373;86;21206;-62
2021/03/19 06:19:07;;;;;;;3.02;2.37;;;;;;;0.54;88.10;97317.06;1630648;85;21204;-64
2021/03/19 06:21:37;;;;;;;2.33;2.12;;;;;;;0.64;88.08;97319.38;1673331;86;21590;-65
2021/03/19 06:24:20;;;;;;;1.87;1.30;;;;;;;0.81;88.09;97322.52;1673296;84;21189;-65
2021/03/19 06:26:49;;;;;;;2.08;1.50;;;;;;;0.93;88.02;97326.02;1673099;86;21708;-65
2021/03/19 06:29:46;;;;;;;2.92;1.87;;;;;;;1.02;87.62;97322.84;1642726;86;21253;-65
2021/03/19 06:32:26;;;;;;;4.08;2.22;;;;;;;1.11;87.08;97322.27;1673197;84;21181;-64
2021/03/19 06:35:18;;;;;;;1.37;1.25;;;;;;;1.20;86.63;97322.12;1673183;84;21185;-63
2021/03/19 06:37:52;;;;;;;1.00;0.95;;;;;;;1.26;85.97;97322.53;1673028;86;21210;-64
2021/03/19 06:40:37;;;;;;;2.22;1.02;;;;;;;1.33;85.59;97326.31;1672930;86;21348;-65
2021/03/19 06:43:19;;;;;;;2.52;1.92;;;;;;;1.47;86.09;97328.44;1673446;85;21225;-65
2021/03/19 06:45:50;;;;;;;1.65;1.10;;;;;;;1.44;84.41;97328.98;1668819;86;21189;-64
2021/03/19 06:48:33;;;;;;;1.60;1.50;;;;;;;1.55;84.88;97331.30;1673223;84;21170;-64
2021/03/19 06:51:39;;;;;;;1.22;0.93;;;;;;;1.51;83.07;97327.31;1819661;78;22647;-64
2021/03/19 06:54:15;;;;;;;1.22;1.10;;;;;;;1.51;83.02;97329.88;1792757;80;21179;-62
2021/03/19 06:57:28;;;;;;;2.55;2.17;;;;;;;1.59;83.50;97334.02;1792308;80;21293;-64
2021/03/19 07:00:02;;;;;;;1.77;1.67;;;;;;;1.59;83.34;97340.41;1657166;85;21693;-64
2021/03/19 07:03:02;;;;;;;2.35;1.65;;;;;;;1.56;82.77;97336.30;1657085;85;21340;-64
2021/03/19 07:06:11;;;;;;;2.83;1.37;;;;;;;1.68;83.37;97345.72;1626698;87;21257;-64
2021/03/19 07:09:16;;;;;;;2.20;1.87;;;;;;;1.74;82.86;97345.33;1602755;88;21183;-63
2021/03/19 07:12:17;;;;;;;2.27;1.57;;;;;;;1.75;82.53;97347.42;1560507;92;21309;-64
2021/03/19 07:15:16;;;;;;;3.62;2.40;;;;;;;1.83;82.57;97345.14;1780490;79;23448;-66
2021/03/19 07:17:58;;;;;;;6.03;2.37;;;;;;;1.70;82.68;97355.41;1753103;82;21129;-66
2021/03/19 07:24:17;;;;;;;2.30;1.82;;;;;;;1.86;83.32;97357.76;1616173;87;21189;-66
2021/03/19 07:27:21;;;;;;;1.92;1.20;;;;;;;2.03;82.78;97352.29;1566743;90;21203;-64
2021/03/19 07:30:17;;;;;;;1.65;1.00;;;;;;;1.83;80.87;97362.60;1605528;89;21191;-64
2021/03/19 07:33:12;;;;;;;1.87;1.57;;;;;;;2.06;82.94;97364.91;1605716;89;21233;-65
2021/03/19 07:36:06;;;;;;;1.17;1.02;;;;;;;2.29;82.89;97364.15;1635585;88;21603;-64
2021/03/19 07:38:58;;;;;;;2.30;1.45;;;;;;;2.42;82.03;97363.27;1669807;85;21152;-64
2021/03/19 07:41:56;;;;;;;3.05;1.42;;;;;;;2.57;81.15;97365.58;1683215;85;21167;-65
2021/03/19 07:44:35;;;;;;;3.00;1.32;;;;;;;2.51;79.80;97367.30;1683091;85;21144;-65
2021/03/19 07:47:46;;;;;;;1.92;1.30;;;;;;;2.55;79.57;97366.63;1683102;85;21560;-64
2021/03/19 07:54:22;;;;;;;1.50;1.40;;;;;;;2.67;78.96;97371.72;1823737;77;23413;-65
2021/03/19 07:57:20;;;;;;;1.92;1.47;;;;;;;2.67;79.35;97373.00;1738455;82;21135;-64
2021/03/19 08:00:18;;;;;;;0.95;0.88;;;;;;;2.96;77.91;97371.39;1780022;79;23052;-64
2021/03/19 08:02:57;;;;;;;1.37;1.02;;;;;;;2.98;78.02;97372.09;1753308;82;21168;-63
2021/03/19 08:08:44;;;;;;;1.75;1.35;;;;;;;3.39;78.16;97373.73;1663574;86;21612;-63
2021/03/19 08:11:37;;;;;;;0.82;0.82;;;;;;;3.47;76.96;97370.61;1651693;87;21658;-63
2021/03/19 08:14:54;;;;;;;2.55;0.93;;;;;;;3.67;75.61;97369.49;1663612;85;21240;-64
2021/03/19 08:17:49;;;;;;;1.10;0.80;;;;;;;3.80;75.42;97367.66;1675471;84;21149;-64
2021/03/19 08:20:32;;;;;;;2.60;1.27;;;;;;;3.96;75.09;97371.17;1674685;84;21598;-64
2021/03/19 08:23:26;;;;;;;1.67;1.42;;;;;;;3.72;73.08;97375.57;1675369;84;21187;-63
2021/03/19 08:25:56;;;;;;;1.42;1.22;;;;;;;3.88;74.76;97373.50;1574163;91;21214;-64
2021/03/19 08:28:41;;;;;;;2.27;1.60;;;;;;;3.99;73.69;97370.92;1574229;90;21206;-63
2021/03/19 08:31:20;;;;;;;3.75;1.50;;;;;;;4.04;74.33;97375.27;1574313;91;21599;-63
2021/03/19 08:34:29;;;;;;;0.80;0.78;;;;;;;4.03;71.31;97374.91;1574161;91;21607;-64
2021/03/19 08:36:57;;;;;;;2.50;1.35;;;;;;;4.08;73.87;97374.55;1573766;90;21605;-64
2021/03/19 08:39:40;;;;;;;1.52;1.10;;;;;;;3.80;72.23;97375.81;1547426;92;21186;-65
2021/03/19 08:42:19;;;;;;;1.45;0.70;;;;;;;3.91;72.33;97373.72;1547396;93;21222;-64
2021/03/19 08:44:49;;;;;;;9.15;1.15;;;;;;;3.92;72.67;97367.20;1547539;93;21222;-63
2021/03/19 08:47:44;;;;;;;2.20;1.40;;;;;;;3.92;71.74;97378.75;1547275;92;21347;-64
2021/03/19 08:50:26;;;;;;;1.20;0.98;;;;;;;3.90;71.86;97375.93;1544710;93;21228;-64
2021/03/19 08:53:24;;;;;;;1.65;1.22;;;;;;;3.87;72.52;97376.17;1574135;91;21632;-64
2021/03/19 08:56:12;;;;;;;1.25;0.82;;;;;;;3.94;72.80;97382.47;1689130;80;21402;-63
2021/03/19 08:58:51;;;;;;;2.77;1.32;;;;;;;4.13;73.24;97374.54;1682300;85;21217;-63
2021/03/19 09:01:55;;;;;;;1.98;1.37;;;;;;;4.17;72.75;97387.50;1621943;87;21612;-64
2021/03/19 09:05:02;;;;;;;3.62;1.40;;;;;;;4.35;73.03;97386.58;1622010;87;21164;-64
2021/03/19 09:07:39;;;;;;;2.58;1.32;;;;;;;4.62;73.12;97380.58;1621992;87;21212;-65
2021/03/19 09:13:10;;;;;;;1.95;1.10;;;;;;;4.44;70.99;97386.31;1698076;83;21166;-64
2021/03/19 09:15:46;;;;;;;1.27;1.12;;;;;;;4.16;70.59;97391.00;1706296;84;21654;-64
2021/03/19 09:18:42;;;;;;;1.37;1.05;;;;;;;3.71;72.72;97388.05;1697397;83;21667;-65
2021/03/19 09:21:54;;;;;;;2.05;1.45;;;;;;;3.68;73.23;97395.53;1708234;84;21177;-64
2021/03/19 09:24:25;;;;;;;4.20;1.70;;;;;;;3.65;73.15;97391.09;1645267;86;21659;-64
2021/03/19 09:27:32;;;;;;;2.47;1.67;;;;;;;3.66;72.18;97396.55;1672654;86;21185;-64
2021/03/19 09:30:45;;;;;;;1.72;1.37;;;;;;;3.59;74.46;97394.09;1673851;84;21213;-64
2021/03/19 09:33:44;;;;;;;2.60;1.02;;;;;;;3.68;73.41;97390.39;1681258;84;21173;-65
2021/03/19 09:36:56;;;;;;;1.77;1.42;;;;;;;3.91;72.47;97386.56;1632598;86;21216;-65
2021/03/19 09:40:07;;;;;;;3.08;1.30;;;;;;;4.28;71.59;97390.53;1687803;85;21183;-65
2021/03/19 09:42:49;;;;;;;1.50;1.12;;;;;;;4.63;70.92;97387.83;1621149;87;21210;-75
2021/03/19 09:45:22;;;;;;;1.92;1.27;;;;;;;4.71;69.74;97384.98;1667906;86;21203;-65
2021/03/19 09:48:20;;;;;;;1.37;0.90;;;;;;;4.87;68.76;97392.31;1667925;86;21183;-65
2021/03/19 09:50:59;;;;;;;1.95;1.30;;;;;;;5.09;69.74;97395.30;1667308;86;21675;-64
2021/03/19 09:53:55;;;;;;;0.78;0.72;;;;;;;5.32;69.67;97396.03;1667395;86;21148;-63
2021/03/19 09:56:27;;;;;;;1.15;1.05;;;;;;;5.51;71.06;97391.02;1643164;87;21154;-62
2021/03/19 09:58:59;;;;;;;1.57;1.32;;;;;;;5.66;70.76;97388.47;1656325;87;21237;-63
2021/03/19 10:01:44;;;;;;;1.45;1.00;;;;;;;5.75;69.01;97391.59;1656478;85;21165;-63
2021/03/19 10:04:38;;;;;;;0.75;0.65;;;;;;;5.80;66.69;97390.72;1656461;87;21611;-63
2021/03/19 10:07:38;;;;;;;1.25;0.98;;;;;;;5.99;69.25;97395.22;1656322;87;21634;-62
2021/03/19 10:10:23;;;;;;;1.00;0.90;;;;;;;6.04;66.59;97399.49;1669740;86;21182;-64
2021/03/19 10:12:52;;;;;;;1.15;0.85;;;;;;;6.14;68.94;97405.53;1669935;85;21631;-61
2021/03/19 10:15:27;;;;;;;2.20;1.37;;;;;;;6.11;68.97;97406.58;1669838;85;21184;-64
2021/03/19 10:18:00;;;;;;;2.05;1.37;;;;;;;5.74;67.10;97412.67;1670013;85;21177;-64
2021/03/19 10:20:37;;;;;;;1.92;0.90;;;;;;;5.51;67.73;97412.44;1669850;85;21598;-65
2021/03/19 10:23:11;;;;;;;;;;;;;;;5.45;68.23;97412.09;1672036;85;21225;-64
2021/03/19 10:25:45;;;;;;;0.68;0.60;;;;;;;5.31;67.57;97417.09;1669889;85;20391;-65
2021/03/19 10:28:23;;;;;;;1.05;0.88;;;;;;;5.24;66.87;97420.64;1669824;85;21176;-63
2021/03/19 10:31:07;;;;;;;1.07;0.90;;;;;;;5.38;68.64;97423.38;1669795;85;21165;-62
2021/03/19 10:33:40;;;;;;;0.85;0.60;;;;;;;5.48;69.05;97424.28;1669835;85;21165;-64
2021/03/19 10:36:16;;;;;;;0.45;0.45;;;;;;;5.57;68.79;97420.95;1669884;86;21185;-64
2021/03/19 10:38:52;;;;;;;0.82;0.57;;;;;;;5.65;69.14;97424.18;1669710;84;21158;-64
2021/03/19 10:41:43;;;;;;;1.25;1.15;;;;;;;5.71;70.79;97418.55;1670119;86;21177;-65
2021/03/19 10:44:25;;;;;;;0.82;0.78;;;;;;;5.85;69.55;97418.69;1779908;79;23129;-64
2021/03/19 10:47:19;;;;;;;1.50;0.82;;;;;;;5.90;70.08;97428.18;1753343;82;21147;-65
2021/03/19 10:50:22;;;;;;;1.15;0.90;;;;;;;5.94;68.93;97423.94;1700720;84;21590;-65
2021/03/19 10:53:09;;;;;;;2.87;1.30;;;;;;;5.97;70.19;97429.30;1701859;84;21313;-64
2021/03/19 10:55:37;;;;;;;1.15;0.90;;;;;;;5.99;68.15;97432.59;1702000;84;21173;-64
2021/03/19 10:58:25;;;;;;;1.20;1.02;;;;;;;6.01;69.28;97426.35;1701835;84;21162;-64
2021/03/19 11:00:54;;;;;;;1.00;0.90;;;;;;;5.88;64.61;97432.63;1701859;84;21608;-64
2021/03/19 11:03:45;;;;;;;2.15;0.72;;;;;;;5.95;65.29;97429.92;1701815;84;21216;-64
2021/03/19 11:06:55;;;;;;;1.60;1.20;;;;;;;6.04;65.79;97427.84;1696437;84;21180;-64
2021/03/19 11:20:22;;;;;;;1.50;1.02;;;;;;;6.32;67.44;97421.20;1831854;77;23504;-62
2021/03/19 11:22:53;;;;;;;2.15;1.60;;;;;;;6.20;66.56;97426.45;1868238;77;21798;-64
2021/03/19 11:25:29;;;;;;;1.27;1.02;;;;;;;6.14;67.64;97429.55;1868306;77;21707;-64
2021/03/19 11:27:57;;;;;;;;;;;;;;;6.15;70.46;97428.58;1870077;77;21104;-64
2021/03/19 11:30:31;;;;;;;1.35;0.95;;;;;;;6.12;67.22;97424.98;1868360;76;20217;-64
2021/03/19 11:33:14;;;;;;;2.12;1.22;;;;;;;6.13;69.32;97425.80;1868526;77;21225;-64
2021/03/19 11:35:43;;;;;;;2.22;1.52;;;;;;;6.13;68.07;97429.67;1867692;77;21265;-64
2021/03/19 11:38:34;;;;;;;1.80;1.00;;;;;;;6.07;65.57;97423.25;1868354;77;21277;-64
2021/03/19 11:41:22;;;;;;;1.42;0.80;;;;;;;6.07;67.22;97430.98;1868258;77;21273;-64
2021/03/19 11:43:50;;;;;;;2.25;1.62;;;;;;;5.96;69.37;97436.68;1868360;77;21364;-65
2021/03/19 11:46:20;;;;;;;1.80;1.30;;;;;;;5.86;68.83;97434.06;1868291;77;21277;-64
2021/03/19 11:48:51;;;;;;;2.45;1.65;;;;;;;5.87;69.88;97436.17;1868313;77;21611;-63
2021/03/19 11:51:34;;;;;;;3.30;0.90;;;;;;;5.67;66.29;97429.58;1868120;77;21683;-64
2021/03/19 11:54:09;;;;;;;1.25;1.00;;;;;;;5.47;67.98;97417.49;1868429;77;21190;-65
2021/03/19 11:56:38;;;;;;;1.62;1.22;;;;;;;5.57;69.18;97435.11;1868083;77;21195;-65
2021/03/19 11:59:12;;;;;;;1.85;1.07;;;;;;;5.43;67.43;97436.70;1866829;77;21269;-64
2021/03/19 12:01:40;;;;;;;2.40;1.67;;;;;;;5.43;67.81;97437.99;1868070;76;21119;-65
2021/03/19 12:04:19;;;;;;;1.37;0.82;;;;;;;5.43;67.26;97440.57;1868131;77;21284;-64
2021/03/19 12:06:48;;;;;;;1.87;1.15;;;;;;;5.44;69.46;97444.78;1868328;77;21142;-65
2021/03/19 12:09:16;;;;;;;1.90;1.35;;;;;;;5.32;70.29;97450.91;1868000;77;21178;-64
2021/03/19 12:11:44;;;;;;;3.17;1.90;;;;;;;5.08;67.56;97451.10;1868045;77;21620;-65
2021/03/19 12:14:23;;;;;;;3.67;2.08;;;;;;;5.05;70.17;97451.35;1868238;77;21143;-64
2021/03/19 12:16:52;;;;;;;3.75;2.37;;;;;;;4.91;69.57;97449.02;1868338;76;21281;-64
2021/03/19 12:19:22;;;;;;;2.83;2.05;;;;;;;4.79;70.23;97453.38;1867925;77;21265;-64
2021/03/19 12:21:50;;;;;;;2.98;1.90;;;;;;;4.66;71.20;97457.84;1867730;77;21140;-64
2021/03/19 12:24:20;;;;;;;4.30;2.75;;;;;;;4.44;70.42;97464.27;1862188;77;21175;-64
2021/03/19 12:26:48;;;;;;;2.40;1.65;;;;;;;4.38;71.48;97462.17;1843256;77;21135;-64
2021/03/19 12:29:20;;;;;;;1.98;1.47;;;;;;;4.19;72.64;97461.92;1833437;78;21345;-64
2021/03/19 12:31:49;;;;;;;2.22;1.72;;;;;;;4.10;73.47;97472.42;1833811;78;21135;-63
2021/03/19 12:34:17;;;;;;;1.57;1.20;;;;;;;4.00;73.32;97466.34;1783109;80;21309;-63
2021/03/19 12:36:45;;;;;;;1.27;1.00;;;;;;;3.84;74.30;97472.26;1783067;80;21347;-64
2021/03/19 12:39:13;;;;;;;1.47;1.37;;;;;;;3.75;74.29;97473.75;1782968;80;21722;-63
2021/03/19 12:41:42;;;;;;;3.02;2.02;;;;;;;3.72;74.37;97473.98;1782858;80;21291;-63
2021/03/19 12:44:10;;;;;;;2.30;1.82;;;;;;;3.79;74.41;97473.05;1782704;80;21146;-62
2021/03/19 12:46:39;;;;;;;3.60;2.70;;;;;;;3.76;72.34;97487.41;1782949;80;22289;-64
2021/03/19 12:49:08;;;;;;;2.92;2.22;;;;;;;3.76;71.80;97479.70;1782922;80;21122;-64
2021/03/19 12:51:36;;;;;;;3.60;2.50;;;;;;;3.84;72.35;97474.83;1783057;79;21149;-63
2021/03/19 12:54:06;;;;;;;3.70;2.62;;;;;;;3.90;72.50;97475.64;1782857;80;21190;-64
2021/03/19 12:56:34;;;;;;;3.83;2.65;;;;;;;3.89;72.76;97478.34;1782887;79;21291;-64
2021/03/19 12:59:03;;;;;;;2.77;2.10;;;;;;;3.92;71.99;97472.98;1782910;79;21292;-64
2021/03/19 13:01:31;;;;;;;3.80;2.70;;;;;;;4.14;73.01;97469.98;1782832;80;21210;-65
2021/03/19 13:04:00;;;;;;;3.40;2.02;;;;;;;4.34;73.50;97473.62;1752991;80;21110;-63
2021/03/19 13:06:28;;;;;;;2.98;2.22;;;;;;;4.42;73.05;97480.75;1782891;80;21311;-64